sensor_id;sensor_type;location;lat;lon;timestamp;P1;durP1;ratioP1;P2;durP2;ratioP2
29902;SDS011;30288;50.514;9.678;2023-04-03T00:01:43;6.68;;;1.90;;
29902;SDS011;30288;50.514;9.678;2023-04-03T00:03:48;9.82;;;2.15;;
29902;SDS011;30288;50.514;9.678;2023-04-03T00:05:54;9.07;;;2.10;;
29902;SDS011;30288;50.514;9.678;2023-04-03T00:07:59;7.13;;;1.77;;
29902;SDS011;30288;50.514;9.678;2023-04-03T00:10:06;8.13;;;2.47;;
29902;SDS011;30288;50.514;9.678;2023-04-03T00:12:16;9.93;;;1.98;;
29902;SDS011;30288;50.514;9.678;2023-04-03T00:14:21;7.03;;;1.50;;
29902;SDS011;30288;50.514;9.678;2023-04-03T00:16:27;7.05;;;1.98;;
29902;SDS011;30288;50.514;9.678;2023-04-03T00:18:32;7.35;;;1.63;;
29902;SDS011;30288;50.514;9.678;2023-04-03T00:20:37;6.18;;;1.60;;
29902;SDS011;30288;50.514;9.678;2023-04-03T00:22:42;6.97;;;1.40;;
29902;SDS011;30288;50.514;9.678;2023-04-03T00:24:48;11.20;;;1.73;;
29902;SDS011;30288;50.514;9.678;2023-04-03T00:26:53;11.93;;;1.60;;
29902;SDS011;30288;50.514;9.678;2023-04-03T00:29:01;9.75;;;1.73;;
29902;SDS011;30288;50.514;9.678;2023-04-03T00:31:07;6.55;;;1.35;;
29902;SDS011;30288;50.514;9.678;2023-04-03T00:33:12;8.10;;;2.00;;
29902;SDS011;30288;50.514;9.678;2023-04-03T00:35:19;10.05;;;1.70;;
29902;SDS011;30288;50.514;9.678;2023-04-03T00:37:26;8.23;;;2.20;;
29902;SDS011;30288;50.514;9.678;2023-04-03T00:39:32;12.73;;;2.15;;
29902;SDS011;30288;50.514;9.678;2023-04-03T00:41:38;9.63;;;1.92;;
29902;SDS011;30288;50.514;9.678;2023-04-03T00:43:43;10.45;;;2.15;;
29902;SDS011;30288;50.514;9.678;2023-04-03T00:45:50;14.57;;;2.05;;
29902;SDS011;30288;50.514;9.678;2023-04-03T00:47:57;7.63;;;2.47;;
29902;SDS011;30288;50.514;9.678;2023-04-03T00:50:07;9.15;;;2.30;;
29902;SDS011;30288;50.514;9.678;2023-04-03T00:52:15;11.00;;;1.85;;
29902;SDS011;30288;50.514;9.678;2023-04-03T00:54:23;19.23;;;4.22;;
29902;SDS011;30288;50.514;9.678;2023-04-03T00:56:30;11.70;;;1.95;;
29902;SDS011;30288;50.514;9.678;2023-04-03T00:58:37;12.93;;;2.78;;
29902;SDS011;30288;50.514;9.678;2023-04-03T01:00:48;8.00;;;1.65;;
29902;SDS011;30288;50.514;9.678;2023-04-03T01:03:02;10.80;;;2.33;;
29902;SDS011;30288;50.514;9.678;2023-04-03T01:05:09;7.47;;;1.90;;
29902;SDS011;30288;50.514;9.678;2023-04-03T01:07:15;7.82;;;1.80;;
29902;SDS011;30288;50.514;9.678;2023-04-03T01:09:24;10.30;;;1.90;;
29902;SDS011;30288;50.514;9.678;2023-04-03T01:11:30;5.30;;;1.98;;
29902;SDS011;30288;50.514;9.678;2023-04-03T01:13:36;11.32;;;3.97;;
29902;SDS011;30288;50.514;9.678;2023-04-03T01:15:42;15.77;;;4.72;;
29902;SDS011;30288;50.514;9.678;2023-04-03T01:17:50;15.68;;;4.35;;
29902;SDS011;30288;50.514;9.678;2023-04-03T01:20:02;21.10;;;4.93;;
29902;SDS011;30288;50.514;9.678;2023-04-03T01:22:56;18.00;;;4.93;;
29902;SDS011;30288;50.514;9.678;2023-04-03T01:25:15;25.52;;;5.03;;
29902;SDS011;30288;50.514;9.678;2023-04-03T01:27:20;14.57;;;3.22;;
29902;SDS011;30288;50.514;9.678;2023-04-03T01:29:25;9.75;;;2.70;;
29902;SDS011;30288;50.514;9.678;2023-04-03T01:31:31;7.35;;;2.40;;
29902;SDS011;30288;50.514;9.678;2023-04-03T01:33:58;6.30;;;1.90;;
29902;SDS011;30288;50.514;9.678;2023-04-03T01:36:05;7.75;;;2.13;;
29902;SDS011;30288;50.514;9.678;2023-04-03T01:38:11;7.88;;;1.90;;
29902;SDS011;30288;50.514;9.678;2023-04-03T01:40:16;9.32;;;2.33;;
29902;SDS011;30288;50.514;9.678;2023-04-03T01:42:22;8.70;;;2.03;;
29902;SDS011;30288;50.514;9.678;2023-04-03T01:44:27;6.00;;;1.98;;
29902;SDS011;30288;50.514;9.678;2023-04-03T01:46:33;7.15;;;2.40;;
29902;SDS011;30288;50.514;9.678;2023-04-03T01:48:42;9.82;;;2.15;;
29902;SDS011;30288;50.514;9.678;2023-04-03T01:50:47;9.10;;;2.22;;
29902;SDS011;30288;50.514;9.678;2023-04-03T01:52:53;7.65;;;2.28;;
29902;SDS011;30288;50.514;9.678;2023-04-03T01:54:58;8.13;;;1.83;;
29902;SDS011;30288;50.514;9.678;2023-04-03T01:57:03;11.52;;;2.22;;
29902;SDS011;30288;50.514;9.678;2023-04-03T01:59:10;9.80;;;2.13;;
29902;SDS011;30288;50.514;9.678;2023-04-03T02:01:16;9.05;;;2.25;;
29902;SDS011;30288;50.514;9.678;2023-04-03T02:03:22;12.43;;;2.20;;
29902;SDS011;30288;50.514;9.678;2023-04-03T02:05:30;7.43;;;1.77;;
29902;SDS011;30288;50.514;9.678;2023-04-03T02:07:35;10.15;;;2.47;;
29902;SDS011;30288;50.514;9.678;2023-04-03T02:09:42;8.18;;;2.28;;
29902;SDS011;30288;50.514;9.678;2023-04-03T02:11:47;10.10;;;2.67;;
29902;SDS011;30288;50.514;9.678;2023-04-03T02:13:53;12.82;;;2.88;;
29902;SDS011;30288;50.514;9.678;2023-04-03T02:15:58;11.20;;;2.42;;
29902;SDS011;30288;50.514;9.678;2023-04-03T02:18:03;11.00;;;3.95;;
29902;SDS011;30288;50.514;9.678;2023-04-03T02:20:09;10.57;;;2.55;;
29902;SDS011;30288;50.514;9.678;2023-04-03T02:22:17;10.90;;;2.88;;
29902;SDS011;30288;50.514;9.678;2023-04-03T02:24:22;9.73;;;2.22;;
29902;SDS011;30288;50.514;9.678;2023-04-03T02:26:27;7.13;;;2.13;;
29902;SDS011;30288;50.514;9.678;2023-04-03T02:28:33;8.63;;;2.20;;
29902;SDS011;30288;50.514;9.678;2023-04-03T02:30:38;12.85;;;2.60;;
29902;SDS011;30288;50.514;9.678;2023-04-03T02:32:44;11.77;;;2.75;;
29902;SDS011;30288;50.514;9.678;2023-04-03T02:34:50;12.93;;;3.08;;
29902;SDS011;30288;50.514;9.678;2023-04-03T02:36:55;8.35;;;2.42;;
29902;SDS011;30288;50.514;9.678;2023-04-03T02:39:03;7.05;;;1.98;;
29902;SDS011;30288;50.514;9.678;2023-04-03T02:41:10;17.67;;;3.85;;
29902;SDS011;30288;50.514;9.678;2023-04-03T02:43:16;8.43;;;2.25;;
29902;SDS011;30288;50.514;9.678;2023-04-03T02:45:22;9.20;;;2.67;;
29902;SDS011;30288;50.514;9.678;2023-04-03T02:47:27;5.95;;;1.98;;
29902;SDS011;30288;50.514;9.678;2023-04-03T02:49:33;8.63;;;2.50;;
29902;SDS011;30288;50.514;9.678;2023-04-03T02:51:38;10.45;;;2.20;;
29902;SDS011;30288;50.514;9.678;2023-04-03T02:53:47;9.15;;;2.25;;
29902;SDS011;30288;50.514;9.678;2023-04-03T02:55:59;5.13;;;2.03;;
29902;SDS011;30288;50.514;9.678;2023-04-03T02:58:04;10.55;;;2.45;;
29902;SDS011;30288;50.514;9.678;2023-04-03T03:00:10;10.35;;;3.83;;
29902;SDS011;30288;50.514;9.678;2023-04-03T03:02:17;11.05;;;3.30;;
29902;SDS011;30288;50.514;9.678;2023-04-03T03:04:22;12.63;;;2.72;;
29902;SDS011;30288;50.514;9.678;2023-04-03T03:06:28;9.18;;;2.58;;
29902;SDS011;30288;50.514;9.678;2023-04-03T03:08:33;13.25;;;2.60;;
29902;SDS011;30288;50.514;9.678;2023-04-03T03:10:39;8.25;;;2.53;;
29902;SDS011;30288;50.514;9.678;2023-04-03T03:12:46;7.60;;;2.40;;
29902;SDS011;30288;50.514;9.678;2023-04-03T03:14:52;15.77;;;3.28;;
29902;SDS011;30288;50.514;9.678;2023-04-03T03:16:58;8.90;;;2.47;;
29902;SDS011;30288;50.514;9.678;2023-04-03T03:19:03;10.38;;;3.05;;
29902;SDS011;30288;50.514;9.678;2023-04-03T03:21:08;10.88;;;3.00;;
29902;SDS011;30288;50.514;9.678;2023-04-03T03:23:14;12.07;;;3.45;;
29902;SDS011;30288;50.514;9.678;2023-04-03T03:25:19;10.82;;;3.50;;
29902;SDS011;30288;50.514;9.678;2023-04-03T03:27:24;12.02;;;4.10;;
29902;SDS011;30288;50.514;9.678;2023-04-03T03:29:32;13.55;;;3.70;;
29902;SDS011;30288;50.514;9.678;2023-04-03T03:31:38;12.20;;;3.03;;
29902;SDS011;30288;50.514;9.678;2023-04-03T03:33:44;9.38;;;2.95;;
29902;SDS011;30288;50.514;9.678;2023-04-03T03:35:49;14.35;;;3.15;;
29902;SDS011;30288;50.514;9.678;2023-04-03T03:37:55;10.80;;;3.38;;
29902;SDS011;30288;50.514;9.678;2023-04-03T03:40:01;11.35;;;2.92;;
29902;SDS011;30288;50.514;9.678;2023-04-03T03:42:06;10.32;;;2.95;;
29902;SDS011;30288;50.514;9.678;2023-04-03T03:44:12;9.20;;;3.10;;
29902;SDS011;30288;50.514;9.678;2023-04-03T03:46:20;7.22;;;3.25;;
29902;SDS011;30288;50.514;9.678;2023-04-03T03:48:27;9.25;;;3.00;;
29902;SDS011;30288;50.514;9.678;2023-04-03T03:50:32;13.45;;;2.90;;
29902;SDS011;30288;50.514;9.678;2023-04-03T03:52:37;9.32;;;3.00;;
29902;SDS011;30288;50.514;9.678;2023-04-03T03:54:42;10.65;;;2.78;;
29902;SDS011;30288;50.514;9.678;2023-04-03T03:56:50;12.25;;;2.95;;
29902;SDS011;30288;50.514;9.678;2023-04-03T03:58:57;12.80;;;3.53;;
29902;SDS011;30288;50.514;9.678;2023-04-03T04:01:05;12.32;;;4.15;;
29902;SDS011;30288;50.514;9.678;2023-04-03T04:03:21;8.75;;;3.35;;
29902;SDS011;30288;50.514;9.678;2023-04-03T04:05:27;10.52;;;3.55;;
29902;SDS011;30288;50.514;9.678;2023-04-03T04:07:34;14.55;;;4.40;;
29902;SDS011;30288;50.514;9.678;2023-04-03T04:09:39;13.38;;;4.18;;
29902;SDS011;30288;50.514;9.678;2023-04-03T04:11:45;16.25;;;4.30;;
29902;SDS011;30288;50.514;9.678;2023-04-03T04:13:51;12.27;;;4.45;;
29902;SDS011;30288;50.514;9.678;2023-04-03T04:16:00;10.80;;;3.50;;
29902;SDS011;30288;50.514;9.678;2023-04-03T04:18:07;10.70;;;4.15;;
29902;SDS011;30288;50.514;9.678;2023-04-03T04:20:16;12.48;;;4.63;;
29902;SDS011;30288;50.514;9.678;2023-04-03T04:22:22;9.00;;;3.75;;
29902;SDS011;30288;50.514;9.678;2023-04-03T04:24:28;8.82;;;3.88;;
29902;SDS011;30288;50.514;9.678;2023-04-03T04:26:35;16.30;;;4.30;;
29902;SDS011;30288;50.514;9.678;2023-04-03T04:28:44;15.50;;;4.35;;
29902;SDS011;30288;50.514;9.678;2023-04-03T04:30:52;11.23;;;4.25;;
29902;SDS011;30288;50.514;9.678;2023-04-03T04:33:00;10.68;;;4.32;;
29902;SDS011;30288;50.514;9.678;2023-04-03T04:35:07;12.20;;;4.18;;
29902;SDS011;30288;50.514;9.678;2023-04-03T04:37:21;11.82;;;4.18;;
29902;SDS011;30288;50.514;9.678;2023-04-03T04:39:26;16.00;;;4.70;;
29902;SDS011;30288;50.514;9.678;2023-04-03T04:41:33;10.93;;;3.42;;
29902;SDS011;30288;50.514;9.678;2023-04-03T04:43:39;9.43;;;3.67;;
29902;SDS011;30288;50.514;9.678;2023-04-03T04:45:45;12.65;;;3.90;;
29902;SDS011;30288;50.514;9.678;2023-04-03T04:47:54;9.00;;;3.78;;
29902;SDS011;30288;50.514;9.678;2023-04-03T04:50:00;16.95;;;4.47;;
29902;SDS011;30288;50.514;9.678;2023-04-03T04:52:06;16.23;;;5.40;;
29902;SDS011;30288;50.514;9.678;2023-04-03T04:54:16;11.25;;;4.43;;
29902;SDS011;30288;50.514;9.678;2023-04-03T04:56:22;13.45;;;4.45;;
29902;SDS011;30288;50.514;9.678;2023-04-03T04:58:30;15.38;;;4.55;;
29902;SDS011;30288;50.514;9.678;2023-04-03T05:00:36;16.52;;;4.80;;
29902;SDS011;30288;50.514;9.678;2023-04-03T05:02:42;12.88;;;4.32;;
29902;SDS011;30288;50.514;9.678;2023-04-03T05:04:47;13.75;;;4.40;;
29902;SDS011;30288;50.514;9.678;2023-04-03T05:06:59;12.82;;;4.65;;
29902;SDS011;30288;50.514;9.678;2023-04-03T05:09:07;17.65;;;5.25;;
29902;SDS011;30288;50.514;9.678;2023-04-03T05:11:18;19.25;;;5.85;;
29902;SDS011;30288;50.514;9.678;2023-04-03T05:13:26;15.30;;;5.30;;
29902;SDS011;30288;50.514;9.678;2023-04-03T05:15:31;11.55;;;5.57;;
29902;SDS011;30288;50.514;9.678;2023-04-03T05:17:38;13.13;;;5.45;;
29902;SDS011;30288;50.514;9.678;2023-04-03T05:19:47;18.65;;;5.25;;
29902;SDS011;30288;50.514;9.678;2023-04-03T05:21:54;14.73;;;5.50;;
29902;SDS011;30288;50.514;9.678;2023-04-03T05:24:01;11.50;;;5.15;;
29902;SDS011;30288;50.514;9.678;2023-04-03T05:26:08;11.98;;;5.03;;
29902;SDS011;30288;50.514;9.678;2023-04-03T05:28:16;14.45;;;5.28;;
29902;SDS011;30288;50.514;9.678;2023-04-03T05:30:22;11.63;;;4.53;;
29902;SDS011;30288;50.514;9.678;2023-04-03T05:32:27;13.48;;;4.75;;
29902;SDS011;30288;50.514;9.678;2023-04-03T05:34:50;17.73;;;5.97;;
29902;SDS011;30288;50.514;9.678;2023-04-03T05:36:56;13.35;;;5.28;;
29902;SDS011;30288;50.514;9.678;2023-04-03T05:39:02;12.25;;;5.57;;
29902;SDS011;30288;50.514;9.678;2023-04-03T05:41:11;14.00;;;5.43;;
29902;SDS011;30288;50.514;9.678;2023-04-03T05:43:21;15.32;;;5.60;;
29902;SDS011;30288;50.514;9.678;2023-04-03T05:45:27;15.73;;;5.82;;
29902;SDS011;30288;50.514;9.678;2023-04-03T05:47:33;12.27;;;5.60;;
29902;SDS011;30288;50.514;9.678;2023-04-03T05:49:40;12.18;;;5.35;;
29902;SDS011;30288;50.514;9.678;2023-04-03T05:51:49;13.88;;;4.85;;
29902;SDS011;30288;50.514;9.678;2023-04-03T05:54:03;13.38;;;5.32;;
29902;SDS011;30288;50.514;9.678;2023-04-03T05:56:17;10.95;;;4.53;;
29902;SDS011;30288;50.514;9.678;2023-04-03T05:58:25;14.43;;;4.40;;
29902;SDS011;30288;50.514;9.678;2023-04-03T06:00:31;17.73;;;5.15;;
29902;SDS011;30288;50.514;9.678;2023-04-03T06:02:37;11.48;;;4.43;;
29902;SDS011;30288;50.514;9.678;2023-04-03T06:04:50;11.35;;;5.25;;
29902;SDS011;30288;50.514;9.678;2023-04-03T06:06:56;13.02;;;5.28;;
29902;SDS011;30288;50.514;9.678;2023-04-03T06:09:02;9.73;;;4.70;;
29902;SDS011;30288;50.514;9.678;2023-04-03T06:11:08;13.43;;;4.93;;
29902;SDS011;30288;50.514;9.678;2023-04-03T06:13:13;11.77;;;5.15;;
29902;SDS011;30288;50.514;9.678;2023-04-03T06:15:21;15.25;;;5.25;;
29902;SDS011;30288;50.514;9.678;2023-04-03T06:17:26;9.77;;;4.50;;
29902;SDS011;30288;50.514;9.678;2023-04-03T06:19:32;11.13;;;4.88;;
29902;SDS011;30288;50.514;9.678;2023-04-03T06:21:37;12.60;;;4.97;;
29902;SDS011;30288;50.514;9.678;2023-04-03T06:23:43;13.95;;;4.65;;
29902;SDS011;30288;50.514;9.678;2023-04-03T06:25:48;14.57;;;5.05;;
29902;SDS011;30288;50.514;9.678;2023-04-03T06:27:53;10.75;;;5.35;;
29902;SDS011;30288;50.514;9.678;2023-04-03T06:29:59;10.30;;;4.15;;
29902;SDS011;30288;50.514;9.678;2023-04-03T06:32:07;15.63;;;4.50;;
29902;SDS011;30288;50.514;9.678;2023-04-03T06:34:12;9.93;;;4.20;;
29902;SDS011;30288;50.514;9.678;2023-04-03T06:36:19;13.65;;;5.03;;
29902;SDS011;30288;50.514;9.678;2023-04-03T06:38:26;12.20;;;4.60;;
29902;SDS011;30288;50.514;9.678;2023-04-03T06:40:31;12.35;;;3.95;;
29902;SDS011;30288;50.514;9.678;2023-04-03T06:42:37;16.10;;;4.20;;
29902;SDS011;30288;50.514;9.678;2023-04-03T06:44:45;9.07;;;4.35;;
29902;SDS011;30288;50.514;9.678;2023-04-03T06:46:50;10.43;;;4.05;;
29902;SDS011;30288;50.514;9.678;2023-04-03T06:48:58;9.32;;;3.95;;
29902;SDS011;30288;50.514;9.678;2023-04-03T06:51:03;10.90;;;4.45;;
29902;SDS011;30288;50.514;9.678;2023-04-03T06:53:09;16.02;;;4.97;;
29902;SDS011;30288;50.514;9.678;2023-04-03T06:55:15;10.15;;;3.88;;
29902;SDS011;30288;50.514;9.678;2023-04-03T06:57:20;9.30;;;4.30;;
29902;SDS011;30288;50.514;9.678;2023-04-03T06:59:26;10.18;;;4.20;;
29902;SDS011;30288;50.514;9.678;2023-04-03T07:01:31;9.13;;;3.70;;
29902;SDS011;30288;50.514;9.678;2023-04-03T07:03:36;13.57;;;4.45;;
29902;SDS011;30288;50.514;9.678;2023-04-03T07:05:45;15.80;;;4.97;;
29902;SDS011;30288;50.514;9.678;2023-04-03T07:07:50;9.20;;;4.15;;
29902;SDS011;30288;50.514;9.678;2023-04-03T07:09:56;15.63;;;4.00;;
29902;SDS011;30288;50.514;9.678;2023-04-03T07:12:01;13.23;;;4.35;;
29902;SDS011;30288;50.514;9.678;2023-04-03T07:14:07;10.38;;;3.67;;
29902;SDS011;30288;50.514;9.678;2023-04-03T07:16:12;16.48;;;4.63;;
29902;SDS011;30288;50.514;9.678;2023-04-03T07:18:17;9.85;;;3.40;;
29902;SDS011;30288;50.514;9.678;2023-04-03T07:20:23;9.70;;;4.88;;
29902;SDS011;30288;50.514;9.678;2023-04-03T07:22:31;12.88;;;4.75;;
29902;SDS011;30288;50.514;9.678;2023-04-03T07:24:36;8.48;;;4.43;;
29902;SDS011;30288;50.514;9.678;2023-04-03T07:26:41;10.65;;;4.38;;
29902;SDS011;30288;50.514;9.678;2023-04-03T07:28:47;10.82;;;4.18;;
29902;SDS011;30288;50.514;9.678;2023-04-03T07:30:53;13.68;;;3.92;;
29902;SDS011;30288;50.514;9.678;2023-04-03T07:33:03;19.98;;;5.95;;
29902;SDS011;30288;50.514;9.678;2023-04-03T07:35:09;11.88;;;4.88;;
29902;SDS011;30288;50.514;9.678;2023-04-03T07:37:14;10.00;;;4.65;;
29902;SDS011;30288;50.514;9.678;2023-04-03T07:39:22;11.93;;;4.10;;
29902;SDS011;30288;50.514;9.678;2023-04-03T07:41:27;11.57;;;3.95;;
29902;SDS011;30288;50.514;9.678;2023-04-03T07:43:32;10.65;;;4.20;;
29902;SDS011;30288;50.514;9.678;2023-04-03T07:45:38;11.25;;;4.43;;
29902;SDS011;30288;50.514;9.678;2023-04-03T07:47:44;9.02;;;3.83;;
29902;SDS011;30288;50.514;9.678;2023-04-03T07:49:50;11.00;;;4.47;;
29902;SDS011;30288;50.514;9.678;2023-04-03T07:51:55;7.47;;;3.90;;
29902;SDS011;30288;50.514;9.678;2023-04-03T07:54:00;8.77;;;3.83;;
29902;SDS011;30288;50.514;9.678;2023-04-03T07:56:08;10.50;;;4.47;;
29902;SDS011;30288;50.514;9.678;2023-04-03T07:58:16;11.45;;;4.38;;
29902;SDS011;30288;50.514;9.678;2023-04-03T08:00:22;14.43;;;4.57;;
29902;SDS011;30288;50.514;9.678;2023-04-03T08:02:28;9.63;;;4.20;;
29902;SDS011;30288;50.514;9.678;2023-04-03T08:04:33;10.95;;;4.10;;
29902;SDS011;30288;50.514;9.678;2023-04-03T08:06:39;10.23;;;4.00;;
29902;SDS011;30288;50.514;9.678;2023-04-03T08:08:47;13.32;;;4.97;;
29902;SDS011;30288;50.514;9.678;2023-04-03T08:10:53;10.43;;;3.88;;
29902;SDS011;30288;50.514;9.678;2023-04-03T08:13:02;7.97;;;3.92;;
29902;SDS011;30288;50.514;9.678;2023-04-03T08:15:08;10.05;;;4.10;;
29902;SDS011;30288;50.514;9.678;2023-04-03T08:17:14;11.00;;;5.00;;
29902;SDS011;30288;50.514;9.678;2023-04-03T08:19:19;10.38;;;4.20;;
29902;SDS011;30288;50.514;9.678;2023-04-03T08:21:27;10.27;;;4.60;;
29902;SDS011;30288;50.514;9.678;2023-04-03T08:23:32;10.40;;;4.35;;
29902;SDS011;30288;50.514;9.678;2023-04-03T08:25:37;8.77;;;4.03;;
29902;SDS011;30288;50.514;9.678;2023-04-03T08:27:43;9.95;;;4.22;;
29902;SDS011;30288;50.514;9.678;2023-04-03T08:29:51;8.45;;;3.88;;
29902;SDS011;30288;50.514;9.678;2023-04-03T08:31:56;10.38;;;3.80;;
29902;SDS011;30288;50.514;9.678;2023-04-03T08:34:02;10.80;;;4.03;;
29902;SDS011;30288;50.514;9.678;2023-04-03T08:36:14;8.57;;;4.38;;
29902;SDS011;30288;50.514;9.678;2023-04-03T08:38:23;9.13;;;4.10;;
29902;SDS011;30288;50.514;9.678;2023-04-03T08:40:28;11.68;;;4.70;;
29902;SDS011;30288;50.514;9.678;2023-04-03T08:42:36;9.10;;;4.00;;
29902;SDS011;30288;50.514;9.678;2023-04-03T08:44:57;8.55;;;3.90;;
29902;SDS011;30288;50.514;9.678;2023-04-03T08:47:11;8.38;;;3.72;;
29902;SDS011;30288;50.514;9.678;2023-04-03T08:49:29;9.30;;;3.70;;
29902;SDS011;30288;50.514;9.678;2023-04-03T08:51:38;9.07;;;3.83;;
29902;SDS011;30288;50.514;9.678;2023-04-03T08:53:53;9.68;;;2.95;;
29902;SDS011;30288;50.514;9.678;2023-04-03T08:56:04;6.70;;;2.75;;
29902;SDS011;30288;50.514;9.678;2023-04-03T08:58:15;11.52;;;3.05;;
29902;SDS011;30288;50.514;9.678;2023-04-03T09:00:26;8.00;;;2.95;;
29902;SDS011;30288;50.514;9.678;2023-04-03T09:02:40;7.75;;;3.30;;
29902;SDS011;30288;50.514;9.678;2023-04-03T09:04:49;14.68;;;3.72;;
29902;SDS011;30288;50.514;9.678;2023-04-03T09:06:55;6.93;;;3.45;;
29902;SDS011;30288;50.514;9.678;2023-04-03T09:09:09;10.68;;;3.83;;
29902;SDS011;30288;50.514;9.678;2023-04-03T09:11:20;11.68;;;3.67;;
29902;SDS011;30288;50.514;9.678;2023-04-03T09:13:31;8.25;;;3.38;;
29902;SDS011;30288;50.514;9.678;2023-04-03T09:15:46;9.18;;;3.20;;
29902;SDS011;30288;50.514;9.678;2023-04-03T09:17:55;8.48;;;3.45;;
29902;SDS011;30288;50.514;9.678;2023-04-03T09:20:10;7.85;;;3.22;;
29902;SDS011;30288;50.514;9.678;2023-04-03T09:22:26;8.90;;;3.15;;
29902;SDS011;30288;50.514;9.678;2023-04-03T09:24:46;8.40;;;3.25;;
29902;SDS011;30288;50.514;9.678;2023-04-03T09:27:01;6.45;;;2.17;;
29902;SDS011;30288;50.514;9.678;2023-04-03T09:29:14;8.05;;;3.20;;
29902;SDS011;30288;50.514;9.678;2023-04-03T09:31:27;6.00;;;2.30;;
29902;SDS011;30288;50.514;9.678;2023-04-03T09:33:42;5.90;;;2.30;;
29902;SDS011;30288;50.514;9.678;2023-04-03T09:35:48;11.52;;;2.47;;
29902;SDS011;30288;50.514;9.678;2023-04-03T09:38:00;6.70;;;2.80;;
29902;SDS011;30288;50.514;9.678;2023-04-03T09:42:44;9.90;;;3.22;;
29902;SDS011;30288;50.514;9.678;2023-04-03T09:45:01;8.35;;;2.75;;
29902;SDS011;30288;50.514;9.678;2023-04-03T09:47:22;8.63;;;2.38;;
29902;SDS011;30288;50.514;9.678;2023-04-03T09:49:30;7.18;;;2.08;;
29902;SDS011;30288;50.514;9.678;2023-04-03T09:51:36;6.25;;;2.15;;
29902;SDS011;30288;50.514;9.678;2023-04-03T09:53:43;9.57;;;2.70;;
29902;SDS011;30288;50.514;9.678;2023-04-03T09:55:49;8.35;;;2.75;;
29902;SDS011;30288;50.514;9.678;2023-04-03T09:57:54;4.53;;;2.35;;
29902;SDS011;30288;50.514;9.678;2023-04-03T10:00:03;7.00;;;2.50;;
29902;SDS011;30288;50.514;9.678;2023-04-03T10:02:24;6.25;;;2.38;;
29902;SDS011;30288;50.514;9.678;2023-04-03T10:04:39;9.00;;;2.33;;
29902;SDS011;30288;50.514;9.678;2023-04-03T10:06:49;5.18;;;2.28;;
29902;SDS011;30288;50.514;9.678;2023-04-03T10:08:58;4.50;;;2.03;;
29902;SDS011;30288;50.514;9.678;2023-04-03T10:11:12;6.63;;;2.00;;
29902;SDS011;30288;50.514;9.678;2023-04-03T10:13:20;8.55;;;2.15;;
29902;SDS011;30288;50.514;9.678;2023-04-03T10:15:26;4.88;;;1.80;;
29902;SDS011;30288;50.514;9.678;2023-04-03T10:17:40;5.50;;;1.85;;
29902;SDS011;30288;50.514;9.678;2023-04-03T10:19:59;3.97;;;1.90;;
29902;SDS011;30288;50.514;9.678;2023-04-03T10:22:14;12.75;;;2.50;;
29902;SDS011;30288;50.514;9.678;2023-04-03T10:24:28;5.15;;;2.17;;
29902;SDS011;30288;50.514;9.678;2023-04-03T10:26:43;6.45;;;2.17;;
29902;SDS011;30288;50.514;9.678;2023-04-03T10:28:58;16.35;;;4.88;;
29902;SDS011;30288;50.514;9.678;2023-04-03T10:31:13;6.65;;;1.98;;
29902;SDS011;30288;50.514;9.678;2023-04-03T10:33:31;10.30;;;3.15;;
29902;SDS011;30288;50.514;9.678;2023-04-03T10:35:52;7.38;;;2.75;;
29902;SDS011;30288;50.514;9.678;2023-04-03T10:38:15;7.22;;;2.97;;
29902;SDS011;30288;50.514;9.678;2023-04-03T10:40:29;8.38;;;3.08;;
29902;SDS011;30288;50.514;9.678;2023-04-03T10:42:42;8.88;;;3.83;;
29902;SDS011;30288;50.514;9.678;2023-04-03T10:44:58;11.68;;;3.33;;
29902;SDS011;30288;50.514;9.678;2023-04-03T10:47:19;11.57;;;3.60;;
29902;SDS011;30288;50.514;9.678;2023-04-03T10:49:34;10.05;;;4.18;;
29902;SDS011;30288;50.514;9.678;2023-04-03T10:52:01;11.07;;;3.92;;
29902;SDS011;30288;50.514;9.678;2023-04-03T10:54:16;11.68;;;4.30;;
29902;SDS011;30288;50.514;9.678;2023-04-03T10:56:32;11.80;;;4.28;;
29902;SDS011;30288;50.514;9.678;2023-04-03T10:58:44;8.07;;;3.55;;
29902;SDS011;30288;50.514;9.678;2023-04-03T11:00:57;14.10;;;4.70;;
29902;SDS011;30288;50.514;9.678;2023-04-03T11:03:11;9.43;;;3.33;;
29902;SDS011;30288;50.514;9.678;2023-04-03T11:05:26;11.07;;;3.88;;
29902;SDS011;30288;50.514;9.678;2023-04-03T11:07:39;11.38;;;3.28;;
29902;SDS011;30288;50.514;9.678;2023-04-03T11:09:50;12.15;;;3.85;;
29902;SDS011;30288;50.514;9.678;2023-04-03T11:12:04;7.28;;;3.20;;
29902;SDS011;30288;50.514;9.678;2023-04-03T11:16:28;10.75;;;2.75;;
29902;SDS011;30288;50.514;9.678;2023-04-03T11:18:48;9.27;;;2.85;;
29902;SDS011;30288;50.514;9.678;2023-04-03T11:21:02;8.75;;;2.63;;
29902;SDS011;30288;50.514;9.678;2023-04-03T11:23:16;8.82;;;2.15;;
29902;SDS011;30288;50.514;9.678;2023-04-03T11:25:42;9.02;;;1.90;;
29902;SDS011;30288;50.514;9.678;2023-04-03T11:27:51;4.93;;;1.80;;
29902;SDS011;30288;50.514;9.678;2023-04-03T11:30:00;6.78;;;1.73;;
29902;SDS011;30288;50.514;9.678;2023-04-03T11:32:13;5.55;;;1.58;;
29902;SDS011;30288;50.514;9.678;2023-04-03T11:36:46;6.78;;;1.73;;
29902;SDS011;30288;50.514;9.678;2023-04-03T11:38:57;6.80;;;1.45;;
29902;SDS011;30288;50.514;9.678;2023-04-03T11:41:08;4.95;;;1.30;;
29902;SDS011;30288;50.514;9.678;2023-04-03T11:43:20;6.03;;;1.48;;
29902;SDS011;30288;50.514;9.678;2023-04-03T11:45:37;6.63;;;1.80;;
29902;SDS011;30288;50.514;9.678;2023-04-03T11:47:57;4.35;;;1.50;;
29902;SDS011;30288;50.514;9.678;2023-04-03T11:50:30;5.60;;;1.42;;
29902;SDS011;30288;50.514;9.678;2023-04-03T11:55:45;4.85;;;1.20;;
29902;SDS011;30288;50.514;9.678;2023-04-03T11:58:03;3.78;;;1.15;;
29902;SDS011;30288;50.514;9.678;2023-04-03T12:02:58;4.45;;;1.23;;
29902;SDS011;30288;50.514;9.678;2023-04-03T12:07:32;6.40;;;1.38;;
29902;SDS011;30288;50.514;9.678;2023-04-03T12:14:48;4.65;;;1.60;;
29902;SDS011;30288;50.514;9.678;2023-04-03T12:16:54;3.38;;;1.30;;
29902;SDS011;30288;50.514;9.678;2023-04-03T12:19:01;6.13;;;1.27;;
29902;SDS011;30288;50.514;9.678;2023-04-03T12:21:09;5.75;;;1.30;;
29902;SDS011;30288;50.514;9.678;2023-04-03T12:23:25;3.97;;;1.33;;
29902;SDS011;30288;50.514;9.678;2023-04-03T12:25:49;8.38;;;1.75;;
29902;SDS011;30288;50.514;9.678;2023-04-03T12:27:55;4.82;;;1.50;;
29902;SDS011;30288;50.514;9.678;2023-04-03T12:30:05;5.60;;;1.35;;
29902;SDS011;30288;50.514;9.678;2023-04-03T12:32:25;4.03;;;1.50;;
29902;SDS011;30288;50.514;9.678;2023-04-03T12:35:15;3.67;;;0.90;;
29902;SDS011;30288;50.514;9.678;2023-04-03T12:37:39;6.93;;;1.10;;
29902;SDS011;30288;50.514;9.678;2023-04-03T12:40:10;7.93;;;1.60;;
29902;SDS011;30288;50.514;9.678;2023-04-03T12:45:15;7.50;;;1.50;;
29902;SDS011;30288;50.514;9.678;2023-04-03T12:47:26;6.30;;;1.52;;
29902;SDS011;30288;50.514;9.678;2023-04-03T12:49:38;5.28;;;1.23;;
29902;SDS011;30288;50.514;9.678;2023-04-03T12:51:46;5.00;;;1.10;;
29902;SDS011;30288;50.514;9.678;2023-04-03T12:53:52;3.47;;;1.00;;
29902;SDS011;30288;50.514;9.678;2023-04-03T12:56:18;5.38;;;1.15;;
29902;SDS011;30288;50.514;9.678;2023-04-03T12:58:30;4.60;;;1.20;;
29902;SDS011;30288;50.514;9.678;2023-04-03T13:00:35;3.67;;;1.23;;
29902;SDS011;30288;50.514;9.678;2023-04-03T13:02:43;5.13;;;1.50;;
29902;SDS011;30288;50.514;9.678;2023-04-03T13:04:50;4.78;;;1.20;;
29902;SDS011;30288;50.514;9.678;2023-04-03T13:06:56;7.30;;;1.30;;
29902;SDS011;30288;50.514;9.678;2023-04-03T13:09:02;6.18;;;1.83;;
29902;SDS011;30288;50.514;9.678;2023-04-03T13:11:09;3.90;;;1.17;;
29902;SDS011;30288;50.514;9.678;2023-04-03T13:13:16;6.35;;;1.25;;
29902;SDS011;30288;50.514;9.678;2023-04-03T13:15:25;4.95;;;1.10;;